Milford, OH

6:57 PM EST on February 16, 2019 (GMT -0500)
Terrace Park Country Club | | Change Station
Active Advisory: Flood Warning

Elev 528 ft 39.16 °N, 84.30 °W | Updated 13 seconds ago

Clear
Clear
28.9 °F
Feels Like 29 °F
N
1.3
Wind Variable Wind from NNE
Gusts 2.2 mph

Today
High -- | Low -- °F
--% Chance of Precip.
Yesterday
High -- | Low -- °F
Precip. -- in
Pressure 30.03 in
Visibility 10.0 miles
Clouds Clear
Windchill 29 °F
Dew Point 22 °F
Humidity 75%
Rainfall 0.00 in
Snow Depth Not available.
7:27 AM 6:15 PM
Waxing Gibbous, 90% visible
METAR KI69 162355Z AUTO 04003KT 10SM CLR M02/M06 A3003 RMK AO2 T10211056 10001 21022
Pressure 30.03 in
Visibility 10.0 miles
Clouds Clear
Windchill 29 °F
Dew Point 22 °F
Humidity 75%
Rainfall 0.00 in
Snow Depth Not available.
7:27 AM 6:15 PM
Waxing Gibbous, 90% visible
METAR KI69 162355Z AUTO 04003KT 10SM CLR M02/M06 A3003 RMK AO2 T10211056 10001 21022

Get Your Daily Forecast Email!

Thanks for signing up!

Be on the lookout for a verification email in your inbox.

You'll start receiving severe weather alerts in your inbox..

×

10-Day Weather Forecast

Almanac

Astronomy

Feb. 16, 2019 Rise Set
Actual Time
Civil Twilight
Nautical Twilight
Astronomical Twilight
Moon
Length of Visible Light
Length of Day
Tomorrow will be .
, % of the Moon is Illuminated

Today's Extremes

State Highs State Lows

Community

WunderPhotos

Category 6

Welcome to Category 6. This is the collective home for Weather Underground's featured writeups by Dr. Jeff Masters (right), Bob Henson (left), Chris Burt, and other regular contributors.

Nearby

Air Quality

  Air Quality AQ Index Pollutant
Not available.

Snow Depth

Station Depth Elevation

Earthquake Activity

City Distance Mag. Time & Date
Minimum magnitude displayed is 2.5.

Coastal Water Temperatures

Place Temperature

Stations

Nearby Weather Stations

Station Location Temp. Windchill Dew Point Humidity Wind Precip. Elev Updated Type
                   

Watches & Warnings

Flood Warning
Issued: 6:19 PM EST Feb. 16, 2019 – National Weather Service

The Flood Warning continues for
the Ohio River at Cincinnati
* until late tonight.
* At 6 PM the stage was 52.2 feet.
* Flood stage is 52 feet.
* Minor flooding is occurring and minor flooding is forecast.
* The river will fall below flood stage later tonight.
* At stages near 52 feet, sections of Kellogg Avenue from east of
Delta Avenue upstream to near Coney Island to near Eight Mile
Road are flooded, as well as parts of Humbert Avenue in the east end
of Cincinnati. Most of Public Landing is flooded, as well as
Riverside Park off River Road.



Lat... Lon 3890 8418 3885 8429 3906 8448 3903 8493
      3916 8490 3914 8437